createdAt,value
2019-02-26T00:01:55.158Z,63.60
2019-02-26T00:04:32.718Z,63.80
2019-02-26T00:07:08.071Z,63.70
2019-02-26T00:09:42.708Z,63.70
2019-02-26T00:12:19.956Z,63.70
2019-02-26T00:14:55.058Z,63.70
2019-02-26T00:17:29.858Z,63.70
2019-02-26T00:20:05.766Z,63.80
2019-02-26T00:22:42.872Z,63.80
2019-02-26T00:25:20.411Z,63.80
2019-02-26T00:27:58.143Z,63.90
2019-02-26T00:30:33.387Z,63.80
2019-02-26T00:33:08.152Z,63.80
2019-02-26T00:35:43.939Z,63.90
2019-02-26T00:38:19.918Z,64.00
2019-02-26T00:40:55.152Z,64.00
2019-02-26T00:43:32.297Z,63.90
2019-02-26T00:46:08.056Z,63.90
2019-02-26T00:48:43.146Z,64.00
2019-02-26T00:51:20.048Z,64.10
2019-02-26T00:53:55.086Z,64.10
2019-02-26T00:56:31.629Z,64.10
2019-02-26T00:59:07.197Z,64.00
2019-02-26T01:01:46.021Z,63.90
2019-02-26T01:04:25.455Z,63.90
2019-02-26T01:07:01.254Z,64.00
2019-02-26T01:09:38.902Z,64.00
2019-02-26T01:12:13.809Z,64.00
2019-02-26T01:14:52.042Z,63.90
2019-02-26T01:17:26.701Z,63.90
2019-02-26T01:20:05.340Z,64.00
2019-02-26T01:22:40.232Z,64.00
2019-02-26T01:25:18.473Z,64.00
2019-02-26T01:27:53.279Z,63.90
2019-02-26T01:30:31.282Z,63.90
2019-02-26T01:33:08.017Z,63.90
2019-02-26T01:35:44.397Z,63.80
2019-02-26T01:38:21.208Z,63.80
2019-02-26T01:40:56.008Z,63.70
2019-02-26T01:43:30.728Z,63.80
2019-02-26T01:46:07.794Z,63.70
2019-02-26T01:48:42.373Z,63.70
2019-02-26T01:51:19.460Z,63.70
2019-02-26T01:53:54.850Z,63.70
2019-02-26T01:56:30.683Z,63.60
2019-02-26T01:59:05.420Z,63.60
2019-02-26T02:01:44.118Z,63.60
2019-02-26T02:04:17.231Z,63.50
2019-02-26T02:06:54.338Z,63.50
2019-02-26T02:09:28.889Z,63.60
2019-02-26T02:12:06.448Z,63.50
2019-02-26T02:14:46.171Z,63.50
2019-02-26T02:17:20.718Z,63.60
2019-02-26T02:19:55.520Z,63.50
2019-02-26T02:22:30.603Z,63.60
2019-02-26T02:25:05.672Z,63.50
2019-02-26T02:27:40.751Z,63.50
2019-02-26T02:30:22.719Z,63.50
2019-02-26T02:32:58.972Z,63.50
2019-02-26T02:35:33.151Z,63.30
2019-02-26T02:38:19.423Z,63.40
2019-02-26T02:40:52.716Z,63.30
2019-02-26T02:43:29.300Z,63.30
2019-02-26T02:46:06.286Z,63.30
2019-02-26T02:48:41.272Z,63.30
2019-02-26T02:51:16.139Z,63.30
2019-02-26T02:53:53.532Z,63.20
2019-02-26T02:56:27.093Z,63.20
2019-02-26T02:59:03.363Z,63.10
2019-02-26T03:01:37.637Z,63.10
2019-02-26T03:04:17.287Z,63.00
2019-02-26T03:06:50.162Z,63.00
2019-02-26T03:09:25.865Z,63.00
2019-02-26T03:12:00.872Z,63.00
2019-02-26T03:14:38.345Z,62.90
2019-02-26T03:17:14.773Z,62.80
2019-02-26T03:19:48.388Z,62.80
2019-02-26T03:22:23.582Z,63.00
2019-02-26T03:24:59.595Z,62.80
2019-02-26T03:27:36.819Z,62.80
2019-02-26T03:30:20.741Z,62.80
2019-02-26T03:32:58.198Z,62.70
2019-02-26T03:35:28.606Z,62.70
2019-02-26T03:38:04.612Z,62.80
2019-02-26T03:40:40.485Z,62.70
2019-02-26T03:43:16.254Z,62.50
2019-02-26T03:45:51.488Z,62.50
2019-02-26T03:48:26.422Z,62.50
2019-02-26T03:51:01.439Z,62.40
2019-02-26T03:53:36.438Z,62.40
2019-02-26T03:56:14.805Z,62.30
2019-02-26T03:58:52.199Z,62.30
2019-02-26T04:01:25.353Z,62.30
2019-02-26T04:04:02.358Z,62.10
2019-02-26T04:06:36.485Z,62.30
2019-02-26T04:09:14.507Z,62.00
2019-02-26T04:11:51.034Z,62.00
2019-02-26T04:14:27.728Z,61.90
2019-02-26T04:17:04.129Z,61.80
2019-02-26T04:19:38.631Z,61.70
2019-02-26T04:22:34.780Z,61.70
2019-02-26T04:25:13.741Z,62.40
2019-02-26T04:28:33.108Z,61.40
2019-02-26T04:32:09.534Z,61.40
2019-02-26T04:35:17.394Z,61.40
2019-02-26T04:38:31.140Z,61.40
2019-02-26T04:41:28.413Z,61.40
2019-02-26T04:44:40.789Z,61.30
2019-02-26T04:47:24.196Z,61.20
2019-02-26T04:50:00.526Z,61.30
2019-02-26T04:52:40.042Z,61.30
2019-02-26T04:55:12.248Z,61.30
2019-02-26T04:57:49.038Z,61.20
2019-02-26T05:00:27.966Z,61.20
2019-02-26T05:03:04.910Z,61.00
2019-02-26T05:05:39.541Z,60.80
2019-02-26T05:08:17.756Z,60.80
2019-02-26T05:10:54.224Z,60.80
2019-02-26T05:13:32.156Z,60.80
2019-02-26T05:16:07.813Z,60.70
2019-02-26T05:18:46.364Z,60.60
2019-02-26T05:21:24.396Z,60.60
2019-02-26T05:24:00.197Z,60.50
2019-02-26T05:26:38.778Z,60.40
2019-02-26T05:29:16.775Z,60.30
2019-02-26T05:31:51.735Z,60.10
2019-02-26T05:34:27.533Z,60.30
2019-02-26T05:37:04.365Z,60.10
2019-02-26T05:39:40.372Z,60.00
2019-02-26T05:42:15.437Z,59.90
2019-02-26T05:44:54.014Z,59.90
2019-02-26T05:47:27.930Z,59.90
2019-02-26T05:50:06.275Z,59.80
2019-02-26T05:52:40.932Z,60.60
2019-02-26T05:55:19.706Z,59.80
2019-02-26T05:57:54.498Z,59.70
2019-02-26T06:00:33.298Z,59.70
2019-02-26T06:03:09.547Z,59.60
2019-02-26T06:05:45.709Z,59.60
2019-02-26T06:08:19.504Z,59.60
2019-02-26T06:10:54.633Z,59.50
2019-02-26T06:13:35.474Z,59.40
2019-02-26T06:16:09.147Z,59.50
2019-02-26T06:18:44.013Z,59.50
2019-02-26T06:21:20.962Z,59.40
2019-02-26T06:23:58.819Z,59.40
2019-02-26T06:26:36.095Z,59.40
2019-02-26T06:29:09.698Z,59.40
2019-02-26T06:31:52.324Z,59.40
2019-02-26T06:34:28.226Z,59.30
2019-02-26T06:37:24.877Z,59.30
2019-02-26T06:40:02.481Z,59.30
2019-02-26T06:42:37.952Z,59.30
2019-02-26T06:45:13.918Z,59.30
2019-02-26T06:47:51.296Z,59.30
2019-02-26T06:50:27.609Z,59.30
2019-02-26T06:53:04.616Z,59.30
2019-02-26T06:55:40.099Z,59.30
2019-02-26T06:58:26.491Z,59.30
2019-02-26T07:01:02.180Z,59.20
2019-02-26T07:03:40.374Z,59.20
2019-02-26T07:06:18.465Z,59.20
2019-02-26T07:08:53.520Z,59.10
2019-02-26T07:11:30.508Z,59.10
2019-02-26T07:14:05.547Z,59.10
2019-02-26T07:16:41.098Z,59.00
2019-02-26T07:19:16.691Z,58.90
2019-02-26T07:21:53.031Z,58.90
2019-02-26T07:24:28.128Z,58.80
2019-02-26T07:27:04.296Z,58.80
2019-02-26T07:29:40.217Z,58.70
2019-02-26T07:32:17.292Z,58.70
2019-02-26T07:34:52.235Z,58.70
2019-02-26T07:37:28.403Z,58.70
2019-02-26T07:40:03.768Z,58.60
2019-02-26T07:42:41.408Z,58.50
2019-02-26T07:45:19.696Z,58.40
2019-02-26T07:47:56.051Z,58.40
2019-02-26T07:50:34.532Z,58.30
2019-02-26T07:53:07.213Z,58.20
2019-02-26T07:55:42.402Z,58.20
2019-02-26T07:58:18.387Z,58.10
2019-02-26T08:00:53.102Z,58.00
2019-02-26T08:03:29.433Z,58.00
2019-02-26T08:06:07.154Z,58.00
2019-02-26T08:08:44.172Z,57.90
2019-02-26T08:11:19.103Z,57.70
2019-02-26T08:13:54.748Z,57.70
2019-02-26T08:16:30.094Z,57.70
2019-02-26T08:19:05.953Z,57.60
2019-02-26T08:21:40.699Z,57.50
2019-02-26T08:24:17.014Z,57.40
2019-02-26T08:26:51.489Z,57.40
2019-02-26T08:29:29.408Z,57.30
2019-02-26T08:32:03.759Z,57.20
2019-02-26T08:34:39.719Z,57.10
2019-02-26T08:37:16.619Z,57.10
2019-02-26T08:39:51.224Z,57.00
2019-02-26T08:42:26.039Z,56.90
2019-02-26T08:45:00.689Z,56.90
2019-02-26T08:47:36.056Z,56.80
2019-02-26T08:50:12.473Z,56.70
2019-02-26T08:52:56.227Z,56.60
2019-02-26T08:55:29.809Z,56.50
2019-02-26T08:58:04.423Z,56.40
2019-02-26T09:00:39.757Z,56.40
2019-02-26T09:03:15.591Z,56.30
2019-02-26T09:05:51.605Z,56.30
2019-02-26T09:08:27.323Z,56.20
2019-02-26T09:11:03.502Z,56.20
2019-02-26T09:13:41.044Z,56.10
2019-02-26T09:16:25.097Z,56.10
2019-02-26T09:18:59.707Z,56.10
2019-02-26T09:21:36.859Z,56.00
2019-02-26T09:24:10.773Z,56.00
2019-02-26T09:26:54.705Z,56.00
2019-02-26T09:29:28.249Z,55.90
2019-02-26T09:32:06.662Z,55.90
2019-02-26T09:34:44.575Z,55.90
2019-02-26T09:37:20.490Z,55.80
2019-02-26T09:39:56.788Z,55.80
2019-02-26T09:42:32.464Z,55.80
2019-02-26T09:45:07.346Z,55.70
2019-02-26T09:47:44.803Z,55.80
2019-02-26T09:50:20.725Z,55.70
2019-02-26T09:52:56.589Z,55.70
2019-02-26T09:55:33.726Z,55.60
2019-02-26T09:58:09.508Z,55.60
2019-02-26T10:00:47.540Z,55.60
2019-02-26T10:03:21.929Z,55.60
2019-02-26T10:05:57.926Z,55.60
2019-02-26T10:08:32.969Z,55.50
2019-02-26T10:11:07.641Z,56.20
2019-02-26T10:13:44.334Z,55.50
2019-02-26T10:16:18.494Z,55.50
2019-02-26T10:18:59.372Z,56.20
2019-02-26T10:21:34.925Z,55.40
2019-02-26T10:24:11.427Z,55.40
2019-02-26T10:26:45.980Z,55.40
2019-02-26T10:29:21.837Z,55.40
2019-02-26T10:32:02.533Z,55.30
2019-02-26T10:34:38.316Z,55.30
2019-02-26T10:37:13.963Z,55.30
2019-02-26T10:39:52.021Z,55.20
2019-02-26T10:42:26.409Z,55.10
2019-02-26T10:45:02.752Z,55.10
2019-02-26T10:47:37.215Z,55.20
2019-02-26T10:50:16.321Z,55.00
2019-02-26T10:52:52.738Z,55.10
2019-02-26T10:55:37.118Z,55.10
2019-02-26T10:58:08.050Z,55.00
2019-02-26T11:00:42.561Z,55.00
2019-02-26T11:03:20.101Z,55.00
2019-02-26T11:05:54.043Z,55.00
2019-02-26T11:08:32.330Z,55.00
2019-02-26T11:11:09.590Z,54.90
2019-02-26T11:13:45.313Z,54.90
2019-02-26T11:16:25.149Z,55.00
2019-02-26T11:18:55.803Z,55.00
2019-02-26T11:21:30.837Z,54.90
2019-02-26T11:24:08.422Z,54.90
2019-02-26T11:26:43.934Z,54.90
2019-02-26T11:29:19.006Z,54.90
2019-02-26T11:31:53.511Z,54.90
2019-02-26T11:34:36.260Z,54.90
2019-02-26T11:37:10.717Z,54.90
2019-02-26T11:39:49.171Z,54.90
2019-02-26T11:42:26.959Z,54.90
2019-02-26T11:45:06.614Z,55.00
2019-02-26T11:47:41.314Z,55.00
2019-02-26T11:50:26.977Z,55.00
2019-02-26T11:52:59.821Z,55.00
2019-02-26T11:55:37.477Z,55.00
2019-02-26T11:58:15.981Z,55.10
2019-02-26T12:00:52.385Z,55.00
2019-02-26T12:03:28.136Z,55.10
2019-02-26T12:06:06.925Z,55.10
2019-02-26T12:08:42.432Z,55.10
2019-02-26T12:11:19.840Z,55.20
2019-02-26T12:13:55.651Z,55.20
2019-02-26T12:16:30.109Z,55.20
2019-02-26T12:19:06.032Z,55.20
2019-02-26T12:21:40.909Z,55.30
2019-02-26T12:24:15.525Z,55.20
2019-02-26T12:26:54.856Z,55.40
2019-02-26T12:29:30.403Z,55.30
2019-02-26T12:32:07.067Z,55.40
2019-02-26T12:34:44.590Z,55.40
2019-02-26T12:37:18.557Z,55.30
2019-02-26T12:39:54.801Z,55.50
2019-02-26T12:42:29.412Z,55.50
2019-02-26T12:45:06.702Z,55.60
2019-02-26T12:47:40.608Z,55.60
2019-02-26T12:50:17.039Z,55.70
2019-02-26T12:52:53.723Z,55.70
2019-02-26T12:55:32.950Z,55.70
2019-02-26T12:58:06.758Z,55.70
2019-02-26T13:00:44.356Z,55.70
2019-02-26T13:03:22.737Z,55.80
2019-02-26T13:05:57.290Z,55.80
2019-02-26T13:08:32.361Z,55.90
2019-02-26T13:11:06.705Z,55.90
2019-02-26T13:13:41.525Z,55.90
2019-02-26T13:16:16.558Z,56.00
2019-02-26T13:18:56.243Z,56.00
2019-02-26T13:21:28.623Z,56.00
2019-02-26T13:24:11.818Z,56.00
2019-02-26T13:26:42.408Z,56.10
2019-02-26T13:29:15.724Z,56.10
2019-02-26T13:31:56.543Z,56.10
2019-02-26T13:34:29.085Z,56.00
2019-02-26T13:37:04.243Z,56.10
2019-02-26T13:39:41.551Z,56.20
2019-02-26T13:42:19.275Z,56.90
2019-02-26T13:44:51.067Z,55.80
2019-02-26T13:47:26.018Z,54.60
2019-02-26T13:50:00.527Z,53.40
2019-02-26T13:52:35.080Z,52.10
2019-02-26T13:55:12.495Z,51.10
2019-02-26T13:57:48.045Z,50.10
2019-02-26T14:00:26.451Z,49.10
2019-02-26T14:02:58.957Z,48.30
2019-02-26T14:05:38.252Z,47.50
2019-02-26T14:08:10.440Z,47.00
2019-02-26T14:10:45.470Z,46.40
2019-02-26T14:13:20.482Z,45.90
2019-02-26T14:15:55.190Z,45.40
2019-02-26T14:18:31.464Z,45.10
2019-02-26T14:21:06.346Z,44.80
2019-02-26T14:23:40.786Z,45.40
2019-02-26T14:26:15.858Z,46.90
2019-02-26T14:28:50.539Z,47.00
2019-02-26T14:31:25.281Z,46.80
2019-02-26T14:33:59.861Z,46.30
2019-02-26T14:36:35.581Z,45.80
2019-02-26T14:39:10.845Z,46.90
2019-02-26T14:41:45.420Z,48.20
2019-02-26T14:44:20.277Z,48.00
2019-02-26T14:46:57.475Z,48.20
2019-02-26T14:49:34.410Z,49.10
2019-02-26T14:52:10.194Z,49.70
2019-02-26T14:54:46.987Z,50.30
2019-02-26T14:57:21.869Z,50.70
2019-02-26T14:59:58.103Z,51.20
2019-02-26T15:02:32.886Z,52.10
2019-02-26T15:05:08.157Z,52.90
2019-02-26T15:07:43.960Z,53.40
2019-02-26T15:10:20.595Z,54.00
2019-02-26T15:12:55.435Z,54.50
2019-02-26T15:15:30.287Z,54.80
2019-02-26T15:18:04.987Z,55.10
2019-02-26T15:20:40.195Z,55.30
2019-02-26T15:23:15.711Z,55.50
2019-02-26T15:25:51.290Z,55.60
2019-02-26T15:28:25.754Z,55.80
2019-02-26T15:31:01.272Z,56.00
2019-02-26T15:33:35.728Z,56.30
2019-02-26T15:36:10.358Z,56.30
2019-02-26T15:38:45.320Z,56.40
2019-02-26T15:41:19.731Z,56.50
2019-02-26T15:43:56.534Z,56.50
2019-02-26T15:46:35.271Z,56.70
2019-02-26T15:49:10.100Z,56.70
2019-02-26T15:51:48.771Z,56.80
2019-02-26T15:54:22.824Z,57.00
2019-02-26T15:57:01.049Z,56.90
2019-02-26T15:59:36.309Z,57.00
2019-02-26T16:02:11.125Z,56.90
2019-02-26T16:04:45.784Z,57.00
2019-02-26T16:07:21.872Z,56.90
2019-02-26T16:09:56.679Z,57.00
2019-02-26T16:12:31.558Z,57.00
2019-02-26T16:15:08.181Z,56.90
2019-02-26T16:17:42.486Z,56.80
2019-02-26T16:20:18.726Z,56.80
2019-02-26T16:22:54.867Z,56.60
2019-02-26T16:25:29.843Z,56.60
2019-02-26T16:28:05.022Z,56.50
2019-02-26T16:30:42.597Z,56.40
2019-02-26T16:33:19.250Z,56.40
2019-02-26T16:35:57.404Z,56.30
2019-02-26T16:38:30.837Z,56.20
2019-02-26T16:41:05.608Z,56.20
2019-02-26T16:43:40.398Z,56.10
2019-02-26T16:46:17.936Z,56.10
2019-02-26T16:48:54.138Z,56.10
2019-02-26T16:51:28.860Z,56.00
2019-02-26T16:54:04.745Z,56.00
2019-02-26T16:56:41.793Z,56.00
2019-02-26T16:59:17.913Z,56.00
2019-02-26T17:01:54.835Z,56.00
2019-02-26T17:04:28.638Z,56.20
2019-02-26T17:07:03.201Z,56.20
2019-02-26T17:09:38.041Z,56.30
2019-02-26T17:12:12.780Z,56.30
2019-02-26T17:14:50.420Z,56.60
2019-02-26T17:17:23.530Z,56.50
2019-02-26T17:19:58.265Z,56.50
2019-02-26T17:22:35.386Z,56.60
2019-02-26T17:25:09.878Z,56.60
2019-02-26T17:30:37.671Z,56.90
2019-02-26T17:33:14.453Z,56.90
2019-02-26T17:35:49.251Z,57.00
2019-02-26T17:38:23.899Z,57.10
2019-02-26T17:40:58.807Z,57.20
2019-02-26T17:43:33.269Z,57.30
2019-02-26T17:46:09.835Z,57.30
2019-02-26T17:48:43.914Z,57.30
2019-02-26T17:51:19.088Z,57.40
2019-02-26T17:54:01.985Z,57.50
2019-02-26T17:56:36.279Z,57.60
2019-02-26T17:59:10.914Z,57.60
2019-02-26T18:01:47.010Z,57.70
2019-02-26T18:04:22.934Z,57.80
2019-02-26T18:07:00.364Z,58.00
2019-02-26T18:09:36.112Z,58.00
2019-02-26T18:12:11.774Z,58.00
2019-02-26T18:14:47.485Z,58.10
2019-02-26T18:17:24.417Z,58.10
2019-02-26T18:19:58.245Z,58.20
2019-02-26T18:22:32.600Z,58.20
2019-02-26T18:25:07.671Z,58.30
2019-02-26T18:27:41.954Z,58.30
2019-02-26T18:30:22.468Z,58.30
2019-02-26T18:32:58.932Z,58.40
2019-02-26T18:35:33.884Z,58.50
2019-02-26T18:38:08.598Z,59.10
2019-02-26T18:40:46.168Z,58.50
2019-02-26T18:43:21.834Z,58.60
2019-02-26T18:46:03.438Z,58.70
2019-02-26T18:48:37.962Z,58.60
2019-02-26T18:51:12.716Z,58.70
2019-02-26T18:53:48.529Z,58.80
2019-02-26T18:56:25.108Z,58.80
2019-02-26T18:58:59.912Z,58.80
2019-02-26T19:01:35.542Z,59.00
2019-02-26T19:04:16.310Z,58.90
2019-02-26T19:06:52.580Z,59.00
2019-02-26T19:09:28.129Z,59.10
2019-02-26T19:12:02.885Z,59.00
2019-02-26T19:14:41.890Z,59.10
2019-02-26T19:17:14.174Z,59.10
2019-02-26T19:19:50.507Z,59.20
2019-02-26T19:22:27.187Z,59.10
2019-02-26T19:25:01.721Z,59.20
2019-02-26T19:27:38.503Z,59.30
2019-02-26T19:30:15.292Z,59.40
2019-02-26T19:32:51.103Z,59.30
2019-02-26T19:35:26.603Z,59.30
2019-02-26T19:38:02.827Z,59.40
2019-02-26T19:40:39.634Z,59.40
2019-02-26T19:43:15.122Z,59.40
2019-02-26T19:45:51.499Z,59.50
2019-02-26T19:48:30.447Z,59.50
2019-02-26T19:51:02.168Z,60.20
2019-02-26T19:53:38.298Z,59.60
2019-02-26T19:56:12.889Z,59.60
2019-02-26T19:58:49.278Z,59.70
2019-02-26T20:01:25.813Z,59.60
2019-02-26T20:04:00.603Z,59.70
2019-02-26T20:06:38.744Z,59.70
2019-02-26T20:09:13.554Z,59.70
2019-02-26T20:11:49.727Z,59.70
2019-02-26T20:14:26.186Z,59.70
2019-02-26T20:17:13.678Z,59.70
2019-02-26T20:19:39.071Z,59.80
2019-02-26T20:22:14.020Z,59.90
2019-02-26T20:24:50.462Z,59.70
2019-02-26T20:27:25.132Z,59.90
2019-02-26T20:30:00.591Z,59.90
2019-02-26T20:32:36.079Z,60.00
2019-02-26T20:35:11.963Z,59.90
2019-02-26T20:37:47.284Z,59.90
2019-02-26T20:40:22.360Z,60.00
2019-02-26T20:43:01.370Z,60.00
2019-02-26T20:45:36.434Z,60.00
2019-02-26T20:48:10.907Z,60.00
2019-02-26T20:50:45.654Z,60.10
2019-02-26T20:53:20.367Z,60.10
2019-02-26T20:55:57.418Z,60.10
2019-02-26T20:58:32.339Z,59.80
2019-02-26T21:01:25.561Z,60.10
2019-02-26T21:04:01.527Z,60.20
2019-02-26T21:06:37.004Z,60.10
2019-02-26T21:09:11.722Z,60.20
2019-02-26T21:11:46.735Z,60.30
2019-02-26T21:14:22.852Z,60.30
2019-02-26T21:16:57.914Z,60.30
2019-02-26T21:19:35.758Z,60.20
2019-02-26T21:22:10.954Z,60.30
2019-02-26T21:24:48.244Z,60.40
2019-02-26T21:27:23.760Z,60.30
2019-02-26T21:29:59.309Z,60.40
2019-02-26T21:32:34.060Z,60.40
2019-02-26T21:35:10.209Z,60.50
2019-02-26T21:37:44.697Z,60.50
2019-02-26T21:40:19.716Z,60.50
2019-02-26T21:42:54.559Z,60.60
2019-02-26T21:45:33.850Z,60.60
2019-02-26T21:48:09.767Z,60.60
2019-02-26T21:50:44.513Z,60.60
2019-02-26T21:53:24.177Z,60.80
2019-02-26T21:55:58.547Z,60.60
2019-02-26T21:58:33.690Z,60.60
2019-02-26T22:01:11.484Z,60.70
2019-02-26T22:03:44.643Z,60.80
2019-02-26T22:06:19.675Z,60.70
2019-02-26T22:08:57.049Z,60.80
2019-02-26T22:11:32.144Z,60.80
2019-02-26T22:14:06.549Z,60.90
2019-02-26T22:16:43.019Z,60.80
2019-02-26T22:19:17.256Z,61.00
2019-02-26T22:21:54.883Z,61.00
2019-02-26T22:24:30.444Z,60.90
2019-02-26T22:27:04.871Z,60.90
2019-02-26T22:29:40.811Z,61.10
2019-02-26T22:32:15.569Z,61.80
2019-02-26T22:34:50.903Z,61.00
2019-02-26T22:37:26.463Z,61.10
2019-02-26T22:40:01.947Z,61.10
2019-02-26T22:42:38.875Z,61.00
2019-02-26T22:45:14.231Z,61.10
2019-02-26T22:47:52.947Z,61.10
2019-02-26T22:50:27.799Z,61.10
2019-02-26T22:53:04.585Z,61.30
2019-02-26T22:55:39.476Z,61.20
2019-02-26T22:58:15.223Z,61.10
2019-02-26T23:01:36.400Z,61.20
2019-02-26T23:04:11.148Z,61.20
2019-02-26T23:06:45.602Z,61.20
2019-02-26T23:09:26.372Z,61.40
2019-02-26T23:12:04.803Z,61.30
2019-02-26T23:14:39.306Z,61.30
2019-02-26T23:17:14.501Z,61.50
2019-02-26T23:19:50.194Z,61.40
2019-02-26T23:22:26.291Z,61.50
2019-02-26T23:25:02.177Z,61.50
2019-02-26T23:27:38.955Z,61.50
2019-02-26T23:30:19.231Z,61.60
2019-02-26T23:32:53.808Z,61.50
2019-02-26T23:35:28.674Z,61.50
2019-02-26T23:38:03.278Z,61.70
2019-02-26T23:40:38.959Z,61.70
2019-02-26T23:43:13.641Z,61.70
2019-02-26T23:45:56.806Z,61.60
2019-02-26T23:48:30.868Z,61.70
2019-02-26T23:51:05.846Z,61.60
2019-02-26T23:53:41.364Z,61.70
2019-02-26T23:56:16.760Z,61.70
2019-02-26T23:58:52.555Z,61.90
